createdAt,value
2018-12-16T00:02:12.478Z,32.87
2018-12-16T00:04:42.521Z,29.60
2018-12-16T00:07:13.262Z,30.27
2018-12-16T00:09:41.681Z,30.00
2018-12-16T00:12:10.048Z,30.70
2018-12-16T00:14:38.447Z,33.17
2018-12-16T00:17:06.971Z,31.07
2018-12-16T00:19:35.402Z,29.93
2018-12-16T00:22:03.960Z,32.43
2018-12-16T00:24:32.493Z,32.20
2018-12-16T00:27:12.594Z,30.37
2018-12-16T00:29:41.191Z,32.97
2018-12-16T00:32:09.562Z,30.93
2018-12-16T00:34:38.024Z,32.57
2018-12-16T00:37:06.566Z,33.40
2018-12-16T00:39:35.047Z,33.70
2018-12-16T00:42:03.554Z,34.20
2018-12-16T00:44:31.967Z,31.30
2018-12-16T00:47:00.538Z,35.20
2018-12-16T00:49:28.991Z,33.23
2018-12-16T00:51:57.329Z,32.70
2018-12-16T00:54:25.803Z,35.07
2018-12-16T00:56:54.246Z,33.73
2018-12-16T00:59:22.635Z,32.47
2018-12-16T01:01:51.081Z,31.63
2018-12-16T01:04:19.453Z,35.17
2018-12-16T01:06:47.779Z,34.43
2018-12-16T01:09:16.156Z,32.93
2018-12-16T01:11:44.556Z,36.57
2018-12-16T01:14:12.948Z,33.37
2018-12-16T01:16:41.249Z,32.10
2018-12-16T01:19:09.636Z,33.57
2018-12-16T01:21:38.031Z,33.10
2018-12-16T01:24:06.297Z,34.13
2018-12-16T01:26:35.571Z,34.30
2018-12-16T01:29:04.027Z,33.50
2018-12-16T01:31:32.432Z,32.67
2018-12-16T01:34:00.898Z,36.37
2018-12-16T01:36:29.225Z,35.87
2018-12-16T01:38:57.558Z,34.47
2018-12-16T01:41:26.017Z,35.60
2018-12-16T01:43:54.370Z,34.77
2018-12-16T01:46:22.733Z,35.90
2018-12-16T01:48:51.259Z,36.40
2018-12-16T01:51:19.650Z,33.80
2018-12-16T01:53:48.051Z,35.57
2018-12-16T01:56:16.383Z,35.63
2018-12-16T01:58:44.761Z,34.27
2018-12-16T02:01:13.475Z,35.60
2018-12-16T02:03:42.227Z,36.57
2018-12-16T02:06:11.060Z,33.80
2018-12-16T02:08:39.675Z,36.70
2018-12-16T02:11:08.046Z,36.93
2018-12-16T02:13:36.703Z,37.30
2018-12-16T02:16:05.186Z,36.37
2018-12-16T02:18:33.665Z,36.70
2018-12-16T02:21:02.493Z,37.10
2018-12-16T02:23:31.512Z,35.37
2018-12-16T02:25:59.846Z,34.73
2018-12-16T02:28:28.199Z,36.20
2018-12-16T02:30:56.596Z,38.23
2018-12-16T02:33:25.135Z,35.47
2018-12-16T02:35:53.535Z,38.40
2018-12-16T02:38:21.869Z,36.40
2018-12-16T02:40:50.171Z,36.93
2018-12-16T02:43:18.572Z,36.13
2018-12-16T02:45:47.005Z,35.97
2018-12-16T02:48:15.379Z,38.07
2018-12-16T02:50:43.738Z,37.37
2018-12-16T02:53:12.575Z,34.87
2018-12-16T02:55:41.220Z,37.87
2018-12-16T02:58:09.443Z,37.10
2018-12-16T03:00:37.896Z,36.27
2018-12-16T03:03:06.135Z,38.20
2018-12-16T03:05:35.154Z,35.60
2018-12-16T03:08:03.374Z,34.33
2018-12-16T03:10:31.995Z,39.97
2018-12-16T03:13:00.237Z,36.27
2018-12-16T03:15:28.496Z,38.50
2018-12-16T03:17:56.759Z,39.27
2018-12-16T03:20:25.053Z,38.03
2018-12-16T03:22:53.973Z,38.80
2018-12-16T03:25:22.265Z,39.60
2018-12-16T03:27:51.257Z,39.80
2018-12-16T03:30:19.592Z,35.37
2018-12-16T03:32:48.606Z,36.00
2018-12-16T03:35:16.860Z,38.83
2018-12-16T03:37:45.609Z,38.27
2018-12-16T03:40:14.025Z,36.87
2018-12-16T03:42:42.237Z,39.10
2018-12-16T03:45:10.466Z,39.30
2018-12-16T03:47:40.490Z,36.80
2018-12-16T03:50:22.103Z,38.47
2018-12-16T03:52:50.500Z,38.40
2018-12-16T03:55:18.829Z,39.27
2018-12-16T03:57:47.178Z,38.20
2018-12-16T04:00:15.355Z,39.63
2018-12-16T04:02:43.756Z,40.27
2018-12-16T04:05:12.063Z,39.97
2018-12-16T04:07:40.349Z,38.33
2018-12-16T04:10:09.432Z,38.67
2018-12-16T04:12:39.241Z,39.23
2018-12-16T04:15:07.970Z,39.33
2018-12-16T04:17:36.218Z,37.13
2018-12-16T04:20:05.099Z,42.90
2018-12-16T04:22:33.483Z,40.70
2018-12-16T04:25:01.708Z,40.47
2018-12-16T04:27:30.125Z,42.43
2018-12-16T04:29:58.337Z,41.57
2018-12-16T04:32:29.406Z,41.60
2018-12-16T04:34:57.642Z,40.90
2018-12-16T04:37:25.965Z,42.30
2018-12-16T04:39:56.500Z,41.27
2018-12-16T04:42:25.353Z,40.47
2018-12-16T04:44:53.815Z,40.67
2018-12-16T04:47:22.479Z,41.00
2018-12-16T04:49:50.733Z,41.43
2018-12-16T04:52:19.042Z,41.60
2018-12-16T04:54:47.387Z,40.80
2018-12-16T04:57:15.616Z,42.20
2018-12-16T04:59:43.914Z,42.40
2018-12-16T05:02:12.596Z,41.70
2018-12-16T05:04:41.332Z,41.60
2018-12-16T05:07:09.581Z,38.40
2018-12-16T05:09:38.305Z,40.47
2018-12-16T05:12:06.554Z,42.23
2018-12-16T05:14:34.798Z,41.70
2018-12-16T05:17:03.149Z,42.37
2018-12-16T05:19:32.405Z,42.43
2018-12-16T05:22:00.706Z,41.70
2018-12-16T05:24:29.235Z,38.80
2018-12-16T05:26:57.539Z,43.10
2018-12-16T05:29:26.453Z,39.97
2018-12-16T05:31:54.723Z,40.53
2018-12-16T05:34:25.822Z,41.10
2018-12-16T05:36:54.243Z,43.73
2018-12-16T05:39:23.138Z,42.70
2018-12-16T05:41:51.359Z,40.33
2018-12-16T05:44:19.590Z,40.47
2018-12-16T05:46:48.688Z,40.73
2018-12-16T05:49:17.282Z,41.83
2018-12-16T05:51:45.542Z,43.20
2018-12-16T05:54:13.862Z,43.40
2018-12-16T05:56:42.172Z,42.67
2018-12-16T05:59:10.926Z,43.10
2018-12-16T06:01:39.208Z,41.60
2018-12-16T06:04:07.681Z,42.67
2018-12-16T06:06:35.991Z,41.53
2018-12-16T06:09:05.670Z,42.57
2018-12-16T06:11:35.399Z,38.97
2018-12-16T06:14:04.471Z,39.87
2018-12-16T06:16:33.362Z,41.63
2018-12-16T06:19:01.642Z,40.90
2018-12-16T06:21:29.996Z,40.80
2018-12-16T06:23:58.346Z,43.27
2018-12-16T06:26:26.861Z,42.23
2018-12-16T06:28:55.245Z,43.70
2018-12-16T06:31:23.519Z,39.10
2018-12-16T06:33:51.817Z,39.90
2018-12-16T06:36:21.050Z,40.10
2018-12-16T06:38:49.260Z,38.93
2018-12-16T06:41:17.578Z,42.07
2018-12-16T06:43:45.940Z,43.13
2018-12-16T06:46:14.187Z,42.00
2018-12-16T06:48:42.530Z,41.13
2018-12-16T06:51:10.897Z,41.30
2018-12-16T06:53:39.409Z,43.63
2018-12-16T06:56:08.948Z,42.77
2018-12-16T06:58:37.766Z,40.67
2018-12-16T07:01:06.029Z,43.27
2018-12-16T07:03:34.791Z,41.27
2018-12-16T07:06:04.089Z,42.70
2018-12-16T07:08:32.395Z,43.50
2018-12-16T07:11:00.903Z,46.17
2018-12-16T07:13:29.236Z,43.70
2018-12-16T07:15:57.568Z,45.20
2018-12-16T07:18:25.958Z,43.87
2018-12-16T07:20:54.519Z,43.27
2018-12-16T07:23:22.834Z,44.30
2018-12-16T07:25:51.285Z,42.90
2018-12-16T07:28:19.564Z,45.10
2018-12-16T07:30:48.008Z,46.50
2018-12-16T07:33:17.181Z,45.23
2018-12-16T07:35:45.732Z,44.57
2018-12-16T07:38:14.001Z,43.67
2018-12-16T07:40:42.319Z,48.07
2018-12-16T07:43:10.702Z,46.10
2018-12-16T07:45:39.016Z,45.13
2018-12-16T07:48:07.483Z,46.80
2018-12-16T07:50:35.932Z,46.60
2018-12-16T07:53:04.519Z,45.20
2018-12-16T07:55:32.858Z,47.77
2018-12-16T07:58:01.304Z,47.23
2018-12-16T08:00:30.329Z,48.90
2018-12-16T08:03:00.836Z,45.50
2018-12-16T08:05:29.361Z,46.87
2018-12-16T08:07:58.567Z,46.20
2018-12-16T08:10:27.295Z,44.63
2018-12-16T08:12:56.411Z,45.10
2018-12-16T08:15:24.697Z,45.70
2018-12-16T08:17:53.077Z,48.27
2018-12-16T08:20:21.374Z,46.47
2018-12-16T08:22:50.210Z,46.37
2018-12-16T08:25:18.452Z,45.87
2018-12-16T08:27:46.751Z,45.30
2018-12-16T08:30:15.578Z,48.30
2018-12-16T08:32:43.813Z,48.23
2018-12-16T08:35:12.952Z,46.70
2018-12-16T08:37:41.341Z,47.10
2018-12-16T08:40:10.342Z,45.80
2018-12-16T08:42:39.161Z,46.50
2018-12-16T08:45:08.441Z,47.23
2018-12-16T08:47:36.859Z,52.33
2018-12-16T08:50:06.294Z,49.10
2018-12-16T08:52:35.043Z,46.97
2018-12-16T08:55:03.879Z,49.40
2018-12-16T08:57:32.660Z,50.00
2018-12-16T09:00:00.940Z,51.70
2018-12-16T09:02:29.489Z,50.13
2018-12-16T09:04:57.742Z,49.37
2018-12-16T09:07:26.156Z,47.20
2018-12-16T09:09:55.083Z,46.40
2018-12-16T09:12:23.374Z,48.63
2018-12-16T09:14:52.524Z,49.93
2018-12-16T09:17:21.102Z,51.40
2018-12-16T09:19:49.331Z,47.57
2018-12-16T09:22:17.685Z,48.60
2018-12-16T09:24:46.003Z,48.53
2018-12-16T09:27:14.276Z,47.67
2018-12-16T09:29:42.634Z,46.73
2018-12-16T09:32:10.970Z,48.40
2018-12-16T09:34:45.945Z,45.43
2018-12-16T09:37:14.414Z,44.83
2018-12-16T09:39:46.075Z,46.67
2018-12-16T09:42:16.290Z,48.23
2018-12-16T09:44:57.497Z,47.73
2018-12-16T09:47:27.297Z,45.90
2018-12-16T09:49:59.580Z,45.87
2018-12-16T09:52:28.837Z,46.50
2018-12-16T09:54:59.196Z,46.83
2018-12-16T09:57:28.896Z,47.57
2018-12-16T09:59:57.467Z,44.50
2018-12-16T10:02:25.827Z,45.50
2018-12-16T10:04:55.428Z,44.40
2018-12-16T10:07:23.914Z,46.50
2018-12-16T10:09:57.438Z,46.40
2018-12-16T10:12:26.047Z,44.07
2018-12-16T10:14:54.736Z,44.87
2018-12-16T10:17:25.109Z,45.33
2018-12-16T10:19:53.535Z,45.07
2018-12-16T10:22:22.060Z,45.23
2018-12-16T10:24:51.405Z,45.73
2018-12-16T10:27:20.627Z,46.67
2018-12-16T10:29:50.085Z,47.83
2018-12-16T10:32:20.327Z,49.17
2018-12-16T10:34:49.007Z,46.40
2018-12-16T10:37:18.563Z,47.30
2018-12-16T10:39:47.597Z,50.27
2018-12-16T10:42:16.444Z,49.47
2018-12-16T10:44:44.756Z,50.60
2018-12-16T10:47:27.398Z,48.63
2018-12-16T10:49:56.706Z,47.20
2018-12-16T10:52:25.507Z,46.00
2018-12-16T10:54:58.400Z,46.83
2018-12-16T10:57:24.251Z,49.97
2018-12-16T10:59:52.657Z,48.17
2018-12-16T11:02:21.305Z,49.13
2018-12-16T11:04:49.866Z,48.63
2018-12-16T11:07:18.562Z,50.10
2018-12-16T11:09:47.072Z,54.03
2018-12-16T11:12:16.194Z,51.30
2018-12-16T11:14:44.616Z,53.10
2018-12-16T11:17:13.154Z,57.13
2018-12-16T11:19:41.500Z,50.20
2018-12-16T11:22:10.018Z,48.43
2018-12-16T11:24:38.232Z,50.30
2018-12-16T11:27:06.760Z,46.67
2018-12-16T11:29:35.071Z,52.33
2018-12-16T11:32:03.637Z,48.80
2018-12-16T11:34:32.306Z,48.70
2018-12-16T11:37:00.827Z,49.90
2018-12-16T11:39:29.517Z,48.13
2018-12-16T11:41:58.067Z,52.30
2018-12-16T11:44:27.325Z,47.87
2018-12-16T11:46:55.847Z,49.70
2018-12-16T11:49:25.451Z,49.60
2018-12-16T11:51:54.243Z,47.17
2018-12-16T11:54:22.707Z,49.70
2018-12-16T11:56:51.282Z,52.43
2018-12-16T11:59:20.026Z,53.70
2018-12-16T12:01:48.443Z,48.73
2018-12-16T12:04:16.834Z,57.40
2018-12-16T12:06:45.582Z,54.83
2018-12-16T12:09:13.929Z,50.30
2018-12-16T12:11:42.292Z,53.10
2018-12-16T12:14:10.747Z,50.10
2018-12-16T12:16:39.104Z,49.83
2018-12-16T12:19:07.475Z,52.07
2018-12-16T12:21:36.012Z,50.60
2018-12-16T12:24:04.390Z,52.93
2018-12-16T12:26:32.873Z,51.97
2018-12-16T12:29:01.315Z,56.17
2018-12-16T12:31:29.705Z,50.93
2018-12-16T12:33:58.010Z,64.10
2018-12-16T12:36:26.525Z,53.43
2018-12-16T12:38:54.899Z,55.87
2018-12-16T12:41:23.260Z,58.73
2018-12-16T12:43:51.727Z,55.27
2018-12-16T12:46:20.078Z,53.33
2018-12-16T12:48:48.823Z,54.60
2018-12-16T12:51:17.178Z,57.40
2018-12-16T12:53:45.692Z,52.30
2018-12-16T12:56:14.157Z,57.87
2018-12-16T12:58:42.504Z,55.20
2018-12-16T13:01:11.138Z,53.97
2018-12-16T13:03:39.513Z,54.30
2018-12-16T13:06:08.026Z,56.00
2018-12-16T13:08:36.485Z,56.27
2018-12-16T13:11:04.958Z,58.67
2018-12-16T13:13:33.613Z,54.87
2018-12-16T13:16:02.021Z,54.47
2018-12-16T13:18:30.456Z,56.03
2018-12-16T13:20:58.971Z,53.67
2018-12-16T13:23:27.420Z,55.13
2018-12-16T13:26:02.895Z,53.20
2018-12-16T13:28:31.459Z,54.13
2018-12-16T13:31:00.020Z,56.60
2018-12-16T13:33:28.646Z,55.27
2018-12-16T13:35:57.060Z,59.20
2018-12-16T13:38:25.482Z,58.60
2018-12-16T13:40:54.051Z,55.97
2018-12-16T13:43:22.566Z,60.47
2018-12-16T13:45:50.924Z,58.57
2018-12-16T13:48:19.332Z,62.97
2018-12-16T13:50:47.782Z,58.80
2018-12-16T13:53:16.127Z,55.67
2018-12-16T13:55:45.786Z,55.97
2018-12-16T13:58:14.326Z,56.20
2018-12-16T14:00:42.788Z,57.40
2018-12-16T14:03:12.319Z,54.77
2018-12-16T14:05:46.670Z,58.43
2018-12-16T14:08:12.490Z,56.40
2018-12-16T14:10:44.275Z,55.53
2018-12-16T14:13:13.429Z,59.57
2018-12-16T14:15:42.283Z,58.20
2018-12-16T14:18:11.758Z,56.23
2018-12-16T14:20:40.597Z,56.87
2018-12-16T14:23:10.137Z,57.57
2018-12-16T14:25:38.621Z,56.00
2018-12-16T14:28:07.120Z,60.77
2018-12-16T14:30:35.916Z,57.47
2018-12-16T14:33:04.422Z,59.70
2018-12-16T14:35:35.079Z,58.37
2018-12-16T14:38:04.128Z,54.07
2018-12-16T14:40:32.723Z,60.33
2018-12-16T14:43:01.501Z,54.70
2018-12-16T14:45:30.015Z,60.47
2018-12-16T14:47:58.542Z,57.07
2018-12-16T14:50:28.211Z,58.10
2018-12-16T14:52:56.720Z,60.73
2018-12-16T14:55:26.673Z,59.77
2018-12-16T14:57:55.424Z,58.03
2018-12-16T15:00:24.105Z,57.30
2018-12-16T15:02:53.546Z,62.73
2018-12-16T15:05:22.162Z,61.83
2018-12-16T15:07:50.778Z,61.77
2018-12-16T15:10:19.696Z,63.37
2018-12-16T15:12:48.105Z,66.03
2018-12-16T15:15:18.140Z,72.57
2018-12-16T15:17:46.535Z,74.37
2018-12-16T15:20:14.988Z,73.97
2018-12-16T15:22:43.359Z,68.50
2018-12-16T15:25:11.693Z,73.17
2018-12-16T15:27:40.271Z,75.57
2018-12-16T15:30:10.137Z,76.10
2018-12-16T15:32:40.967Z,88.17
2018-12-16T15:35:09.602Z,67.33
2018-12-16T15:37:37.993Z,69.73
2018-12-16T15:40:08.082Z,65.67
2018-12-16T15:42:36.442Z,68.13
2018-12-16T15:45:08.163Z,64.77
2018-12-16T15:47:47.341Z,66.80
2018-12-16T15:50:21.457Z,61.87
2018-12-16T15:52:49.994Z,61.33
2018-12-16T15:55:18.370Z,61.90
2018-12-16T15:57:46.876Z,62.57
2018-12-16T16:00:15.534Z,63.93
2018-12-16T16:02:43.877Z,63.57
2018-12-16T16:05:13.587Z,62.53
2018-12-16T16:07:42.090Z,57.57
2018-12-16T16:10:10.450Z,58.23
2018-12-16T16:12:39.068Z,57.27
2018-12-16T16:15:08.348Z,61.60
2018-12-16T16:17:39.138Z,61.80
2018-12-16T16:20:09.054Z,58.27
2018-12-16T16:22:37.354Z,55.60
2018-12-16T16:25:06.580Z,57.70
2018-12-16T16:27:34.987Z,55.73
2018-12-16T16:30:04.631Z,56.20
2018-12-16T16:32:33.003Z,55.90
2018-12-16T16:35:01.301Z,56.40
2018-12-16T16:37:29.629Z,57.00
2018-12-16T16:39:58.013Z,54.60
2018-12-16T16:42:26.260Z,54.00
2018-12-16T16:44:55.823Z,56.30
2018-12-16T16:47:24.442Z,57.67
2018-12-16T16:49:52.864Z,57.13
2018-12-16T16:52:21.385Z,53.90
2018-12-16T16:54:50.140Z,54.00
2018-12-16T16:57:18.719Z,51.80
2018-12-16T16:59:47.255Z,54.00
2018-12-16T17:02:18.300Z,52.40
2018-12-16T17:04:46.758Z,52.03
2018-12-16T17:07:15.125Z,50.07
2018-12-16T17:09:43.468Z,53.17
2018-12-16T17:12:11.880Z,51.80
2018-12-16T17:14:40.498Z,54.60
2018-12-16T17:17:08.862Z,51.37
2018-12-16T17:19:37.376Z,48.77
2018-12-16T17:22:06.044Z,50.37
2018-12-16T17:24:34.472Z,51.20
2018-12-16T17:27:02.933Z,48.30
2018-12-16T17:29:31.375Z,50.47
2018-12-16T17:31:59.785Z,49.67
2018-12-16T17:34:28.360Z,47.40
2018-12-16T17:36:58.988Z,46.90
2018-12-16T17:39:27.313Z,46.60
2018-12-16T17:41:55.671Z,46.73
2018-12-16T17:44:24.158Z,45.83
2018-12-16T17:46:52.891Z,45.70
2018-12-16T17:49:22.171Z,46.10
2018-12-16T17:51:50.958Z,43.40
2018-12-16T17:54:20.205Z,43.50
2018-12-16T17:56:49.030Z,43.97
2018-12-16T17:59:18.191Z,43.70
2018-12-16T18:01:50.192Z,45.57
2018-12-16T18:04:19.616Z,49.73
2018-12-16T18:06:48.986Z,45.17
2018-12-16T18:09:17.581Z,48.63
2018-12-16T18:11:45.876Z,47.43
2018-12-16T18:14:15.501Z,48.97
2018-12-16T18:16:44.129Z,43.23
2018-12-16T18:19:12.539Z,48.87
2018-12-16T18:21:40.805Z,47.27
2018-12-16T18:24:09.287Z,49.87
2018-12-16T18:26:43.791Z,46.87
2018-12-16T18:29:09.085Z,47.27
2018-12-16T18:31:37.504Z,46.90
2018-12-16T18:34:05.879Z,47.93
2018-12-16T18:36:34.483Z,47.97
2018-12-16T18:39:05.080Z,47.30
2018-12-16T18:41:47.377Z,45.07
2018-12-16T18:44:15.990Z,47.73
2018-12-16T18:46:44.678Z,47.50
2018-12-16T18:49:13.903Z,47.23
2018-12-16T18:51:44.020Z,47.87
2018-12-16T18:54:12.643Z,49.00
2018-12-16T18:56:41.640Z,48.50
2018-12-16T18:59:11.050Z,46.97
2018-12-16T19:01:40.210Z,44.50
2018-12-16T19:04:09.109Z,41.07
2018-12-16T19:06:37.664Z,42.90
2018-12-16T19:09:07.977Z,44.63
2018-12-16T19:11:36.791Z,44.60
2018-12-16T19:14:05.401Z,44.60
2018-12-16T19:16:34.833Z,44.00
2018-12-16T19:19:04.001Z,44.90
2018-12-16T19:21:32.706Z,48.20
2018-12-16T19:24:03.425Z,44.73
2018-12-16T19:26:32.605Z,47.47
2018-12-16T19:29:03.714Z,46.13
2018-12-16T19:31:32.390Z,48.90
2018-12-16T19:34:02.807Z,48.27
2018-12-16T19:36:31.468Z,49.43
2018-12-16T19:39:00.352Z,47.97
2018-12-16T19:41:29.223Z,46.97
2018-12-16T19:43:58.294Z,45.90
2018-12-16T19:46:27.481Z,46.47
2018-12-16T19:48:58.487Z,46.50
2018-12-16T19:51:29.417Z,45.50
2018-12-16T19:54:12.839Z,48.13
2018-12-16T19:56:42.433Z,48.67
2018-12-16T19:59:14.257Z,46.63
2018-12-16T20:01:43.902Z,46.20
2018-12-16T20:04:19.972Z,46.93
2018-12-16T20:06:48.766Z,46.90
2018-12-16T20:09:17.286Z,46.40
2018-12-16T20:11:48.291Z,46.77
2018-12-16T20:14:17.998Z,47.57
2018-12-16T20:19:27.069Z,52.57
2018-12-16T20:21:57.075Z,48.20
2018-12-16T20:24:28.185Z,45.93
2018-12-16T20:26:57.965Z,48.10
2018-12-16T20:29:26.627Z,44.47
2018-12-16T20:31:56.379Z,48.67
2018-12-16T20:34:26.860Z,47.47
2018-12-16T20:36:56.585Z,48.60
2018-12-16T20:39:26.066Z,51.37
2018-12-16T20:41:57.143Z,48.07
2018-12-16T20:44:27.699Z,46.87
2018-12-16T20:46:56.640Z,46.40
2018-12-16T20:49:27.871Z,45.80
2018-12-16T20:51:57.192Z,44.17
2018-12-16T20:54:26.494Z,46.00
2018-12-16T20:56:55.094Z,40.40
2018-12-16T20:59:25.194Z,41.20
2018-12-16T21:01:53.877Z,41.20
2018-12-16T21:04:22.413Z,43.20
2018-12-16T21:06:50.970Z,42.10
2018-12-16T21:09:19.645Z,41.00
2018-12-16T21:11:53.620Z,41.27
2018-12-16T21:17:19.635Z,42.30
2018-12-16T21:19:48.367Z,40.43
2018-12-16T21:22:16.799Z,40.23
2018-12-16T21:24:45.283Z,40.53
2018-12-16T21:27:14.265Z,40.73
2018-12-16T21:29:42.716Z,38.07
2018-12-16T21:32:11.155Z,41.90
2018-12-16T21:34:41.246Z,39.27
2018-12-16T21:37:09.733Z,40.13
2018-12-16T21:39:38.046Z,38.10
2018-12-16T21:42:09.989Z,39.17
2018-12-16T21:44:39.732Z,44.60
2018-12-16T21:47:08.089Z,44.93
2018-12-16T21:49:36.605Z,45.07
2018-12-16T21:52:06.283Z,45.47
2018-12-16T21:54:35.013Z,48.03
2018-12-16T21:57:04.529Z,47.63
2018-12-16T21:59:33.516Z,45.17
2018-12-16T22:02:02.905Z,45.30
2018-12-16T22:04:32.184Z,47.90
2018-12-16T22:07:00.974Z,44.93
2018-12-16T22:09:30.150Z,47.20
2018-12-16T22:11:58.993Z,45.30
2018-12-16T22:14:27.381Z,49.30
2018-12-16T22:16:56.459Z,51.13
2018-12-16T22:19:24.819Z,46.00
2018-12-16T22:21:53.629Z,49.63
2018-12-16T22:24:22.066Z,46.97
2018-12-16T22:26:50.584Z,47.80
2018-12-16T22:29:19.203Z,46.80
2018-12-16T22:31:48.448Z,46.90
2018-12-16T22:34:17.062Z,45.83
2018-12-16T22:36:45.742Z,44.60
2018-12-16T22:39:15.109Z,45.87
2018-12-16T22:41:43.610Z,43.37
2018-12-16T22:44:12.298Z,43.00
2018-12-16T22:49:19.922Z,43.13
2018-12-16T22:51:48.574Z,40.10
2018-12-16T22:54:17.251Z,41.60
2018-12-16T22:56:46.561Z,42.90
2018-12-16T22:59:14.921Z,42.67
2018-12-16T23:01:43.468Z,44.30
2018-12-16T23:04:11.849Z,44.03
2018-12-16T23:06:40.178Z,45.73
2018-12-16T23:09:09.044Z,44.40
2018-12-16T23:11:38.669Z,45.10
2018-12-16T23:14:07.403Z,44.17
2018-12-16T23:16:36.066Z,44.73
2018-12-16T23:19:04.529Z,45.77
2018-12-16T23:21:33.246Z,46.60
2018-12-16T23:24:01.838Z,46.87
2018-12-16T23:26:30.444Z,45.87
2018-12-16T23:28:58.945Z,43.97
2018-12-16T23:31:27.639Z,45.13
2018-12-16T23:33:56.025Z,45.33
2018-12-16T23:36:24.496Z,43.77
2018-12-16T23:38:53.200Z,43.00
2018-12-16T23:41:21.678Z,44.80
2018-12-16T23:43:50.917Z,42.50
2018-12-16T23:46:19.914Z,41.67
2018-12-16T23:48:48.355Z,42.47
2018-12-16T23:51:16.643Z,45.37
2018-12-16T23:53:45.174Z,43.40
2018-12-16T23:56:14.126Z,43.70
2018-12-16T23:58:42.694Z,40.60
